KRRL/RRL METAR and TAF weather

Enter ICAO airport designator
Station Type Date Time Source
KRRL METAR 2020/01/23 21:35 UTC NOAA

KRRL 232135Z AUTO 09005KT 1 1/4SM -SN SCT008 BKN026 OVC034 M01/M02 A3002 RMK AO2 T10111022 TSNO


Station Type Date Time Source
KRRL Decoded METAR 2020/01/23 21:35 UTC NOAA

Merrill, Merrill Municipal Airport, WI, United States (KRRL) 45-11N 089-42W
Jan 23, 2020 - 04:35 PM EST / 2020.01.23 2135 UTC
Wind: from the E (090 degrees) at 6 MPH (5 KT):0
Visibility: 1 1/4 mile(s):0
Sky conditions: overcast
Weather: light snow
Temperature: 30.0 F (-1.1 C)
Windchill: 23 F (-5 C):1
Dew Point: 28.0 F (-2.2 C)
Relative Humidity: 92%
Pressure (altimeter): 30.02 in. Hg (1016 hPa)
ob: KRRL 232135Z AUTO 09005KT 1 1/4SM -SN SCT008 BKN026 OVC034 M01/M02 A3002 RMK AO2 T10111022 TSNO
cycle: 21

Station Type Date Time Source
KRRL TAF UTC NOAA

Error!

Example: see airport list